sensor_id;sensor_type;location;lat;lon;timestamp;pressure;altitude;pressure_sealevel;temperature;humidity
7990;BME280;4040;42.848;23.034;2024-02-28T00:01:07;95245.59;;;4.36;100.00
7990;BME280;4040;42.848;23.034;2024-02-28T00:06:56;95247.91;;;4.37;100.00
7990;BME280;4040;42.848;23.034;2024-02-28T00:12:45;95252.31;;;4.30;100.00
7990;BME280;4040;42.848;23.034;2024-02-28T00:18:36;95250.88;;;3.98;100.00
7990;BME280;4040;42.848;23.034;2024-02-28T00:24:24;95254.50;;;3.90;100.00
7990;BME280;4040;42.848;23.034;2024-02-28T00:30:13;95248.34;;;3.86;100.00
7990;BME280;4040;42.848;23.034;2024-02-28T00:36:04;95243.84;;;3.90;100.00
7990;BME280;4040;42.848;23.034;2024-02-28T00:41:53;95228.69;;;3.75;100.00
7990;BME280;4040;42.848;23.034;2024-02-28T00:47:42;95234.59;;;3.84;100.00
7990;BME280;4040;42.848;23.034;2024-02-28T00:53:32;95233.75;;;3.80;100.00
7990;BME280;4040;42.848;23.034;2024-02-28T00:59:21;95243.13;;;3.74;100.00
7990;BME280;4040;42.848;23.034;2024-02-28T01:08:54;95237.22;;;3.65;100.00
7990;BME280;4040;42.848;23.034;2024-02-28T01:14:42;95243.59;;;3.45;100.00
7990;BME280;4040;42.848;23.034;2024-02-28T01:20:31;95236.66;;;3.40;100.00
7990;BME280;4040;42.848;23.034;2024-02-28T01:26:22;95235.63;;;3.45;100.00
7990;BME280;4040;42.848;23.034;2024-02-28T01:32:11;95245.22;;;3.65;100.00
7990;BME280;4040;42.848;23.034;2024-02-28T01:38:00;95249.50;;;3.69;100.00
7990;BME280;4040;42.848;23.034;2024-02-28T01:43:50;95253.97;;;3.65;100.00
7990;BME280;4040;42.848;23.034;2024-02-28T01:49:42;95250.97;;;3.67;100.00
7990;BME280;4040;42.848;23.034;2024-02-28T01:55:31;95255.28;;;3.56;100.00
7990;BME280;4040;42.848;23.034;2024-02-28T02:01:22;95242.34;;;3.23;100.00
7990;BME280;4040;42.848;23.034;2024-02-28T02:07:21;95257.25;;;3.28;100.00
7990;BME280;4040;42.848;23.034;2024-02-28T02:13:10;95258.75;;;3.25;100.00
7990;BME280;4040;42.848;23.034;2024-02-28T02:19:00;95259.75;;;3.21;100.00
7990;BME280;4040;42.848;23.034;2024-02-28T02:24:51;95259.41;;;3.07;100.00
7990;BME280;4040;42.848;23.034;2024-02-28T02:30:40;95253.03;;;2.96;100.00
7990;BME280;4040;42.848;23.034;2024-02-28T02:36:29;95256.78;;;2.79;100.00
7990;BME280;4040;42.848;23.034;2024-02-28T02:42:20;95248.72;;;2.76;100.00
7990;BME280;4040;42.848;23.034;2024-02-28T02:48:08;95241.50;;;2.61;100.00
7990;BME280;4040;42.848;23.034;2024-02-28T02:53:57;95246.72;;;2.57;100.00
7990;BME280;4040;42.848;23.034;2024-02-28T02:59:48;95254.66;;;2.42;100.00
7990;BME280;4040;42.848;23.034;2024-02-28T03:05:36;95254.84;;;2.49;100.00
7990;BME280;4040;42.848;23.034;2024-02-28T03:11:25;95243.44;;;2.48;100.00
7990;BME280;4040;42.848;23.034;2024-02-28T03:17:16;95243.06;;;2.35;100.00
7990;BME280;4040;42.848;23.034;2024-02-28T03:23:04;95241.41;;;2.30;100.00
7990;BME280;4040;42.848;23.034;2024-02-28T03:28:54;95244.97;;;2.22;100.00
7990;BME280;4040;42.848;23.034;2024-02-28T03:34:44;95241.22;;;2.23;100.00
7990;BME280;4040;42.848;23.034;2024-02-28T03:40:33;95239.00;;;2.25;100.00
7990;BME280;4040;42.848;23.034;2024-02-28T03:46:22;95238.91;;;2.22;100.00
7990;BME280;4040;42.848;23.034;2024-02-28T03:52:12;95248.00;;;2.21;100.00
7990;BME280;4040;42.848;23.034;2024-02-28T03:58:01;95243.25;;;2.14;100.00
7990;BME280;4040;42.848;23.034;2024-02-28T04:03:50;95248.63;;;2.18;100.00
7990;BME280;4040;42.848;23.034;2024-02-28T04:13:52;95244.22;;;2.22;100.00
7990;BME280;4040;42.848;23.034;2024-02-28T04:19:41;95221.94;;;2.26;100.00
7990;BME280;4040;42.848;23.034;2024-02-28T04:25:30;95223.91;;;2.29;100.00
7990;BME280;4040;42.848;23.034;2024-02-28T04:31:20;95225.59;;;2.49;100.00
7990;BME280;4040;42.848;23.034;2024-02-28T04:37:09;95237.53;;;2.55;100.00
7990;BME280;4040;42.848;23.034;2024-02-28T04:42:58;95256.13;;;2.55;100.00
7990;BME280;4040;42.848;23.034;2024-02-28T04:48:49;95247.50;;;2.58;100.00
7990;BME280;4040;42.848;23.034;2024-02-28T04:54:40;95253.47;;;2.55;100.00
7990;BME280;4040;42.848;23.034;2024-02-28T05:00:29;95261.22;;;2.60;100.00
7990;BME280;4040;42.848;23.034;2024-02-28T05:06:19;95264.78;;;2.52;100.00
7990;BME280;4040;42.848;23.034;2024-02-28T05:16:31;95265.34;;;2.73;100.00
7990;BME280;4040;42.848;23.034;2024-02-28T05:22:21;95271.66;;;2.96;100.00
7990;BME280;4040;42.848;23.034;2024-02-28T05:28:10;95279.00;;;3.30;100.00
7990;BME280;4040;42.848;23.034;2024-02-28T05:34:00;95305.44;;;3.54;100.00
7990;BME280;4040;42.848;23.034;2024-02-28T05:39:50;95332.41;;;3.68;100.00
7990;BME280;4040;42.848;23.034;2024-02-28T05:45:39;95349.06;;;3.96;100.00
7990;BME280;4040;42.848;23.034;2024-02-28T05:51:28;95357.72;;;4.43;100.00
7990;BME280;4040;42.848;23.034;2024-02-28T05:57:18;95357.34;;;5.80;100.00
7990;BME280;4040;42.848;23.034;2024-02-28T06:03:07;95365.69;;;8.28;100.00
7990;BME280;4040;42.848;23.034;2024-02-28T06:08:57;95371.59;;;9.30;100.00
7990;BME280;4040;42.848;23.034;2024-02-28T06:19:09;95376.16;;;9.15;100.00
7990;BME280;4040;42.848;23.034;2024-02-28T06:24:58;95348.72;;;10.33;100.00
7990;BME280;4040;42.848;23.034;2024-02-28T06:30:47;95380.03;;;11.34;100.00
7990;BME280;4040;42.848;23.034;2024-02-28T06:36:37;95382.34;;;12.08;100.00
7990;BME280;4040;42.848;23.034;2024-02-28T06:42:26;95390.09;;;11.16;100.00
7990;BME280;4040;42.848;23.034;2024-02-28T06:48:16;95384.84;;;10.04;100.00
7990;BME280;4040;42.848;23.034;2024-02-28T06:54:06;95389.47;;;10.70;100.00
7990;BME280;4040;42.848;23.034;2024-02-28T06:59:55;95387.69;;;11.39;100.00
7990;BME280;4040;42.848;23.034;2024-02-28T07:05:44;95400.84;;;12.60;100.00
7990;BME280;4040;42.848;23.034;2024-02-28T07:11:35;95391.59;;;14.48;100.00
7990;BME280;4040;42.848;23.034;2024-02-28T07:21:45;95381.44;;;18.92;60.89
7990;BME280;4040;42.848;23.034;2024-02-28T07:27:36;95388.06;;;20.02;55.38
7990;BME280;4040;42.848;23.034;2024-02-28T07:33:25;95386.63;;;22.14;48.09
7990;BME280;4040;42.848;23.034;2024-02-28T07:39:14;95387.78;;;20.61;49.29
7990;BME280;4040;42.848;23.034;2024-02-28T07:45:05;95394.47;;;16.55;66.08
7990;BME280;4040;42.848;23.034;2024-02-28T07:50:55;95397.53;;;15.50;84.57
7990;BME280;4040;42.848;23.034;2024-02-28T07:56:45;95394.31;;;14.25;100.00
7990;BME280;4040;42.848;23.034;2024-02-28T08:02:35;95398.28;;;13.57;100.00
7990;BME280;4040;42.848;23.034;2024-02-28T08:08:25;95390.63;;;13.82;100.00
7990;BME280;4040;42.848;23.034;2024-02-28T08:14:13;95389.25;;;13.37;100.00
7990;BME280;4040;42.848;23.034;2024-02-28T08:24:26;95383.28;;;13.19;100.00
7990;BME280;4040;42.848;23.034;2024-02-28T08:30:15;95370.97;;;14.31;100.00
7990;BME280;4040;42.848;23.034;2024-02-28T08:36:05;95372.63;;;14.48;100.00
7990;BME280;4040;42.848;23.034;2024-02-28T08:41:55;95359.78;;;15.36;99.50
7990;BME280;4040;42.848;23.034;2024-02-28T08:47:44;95354.19;;;17.10;76.08
7990;BME280;4040;42.848;23.034;2024-02-28T08:53:33;95348.84;;;17.76;71.34
7990;BME280;4040;42.848;23.034;2024-02-28T08:59:23;95340.72;;;17.48;68.22
7990;BME280;4040;42.848;23.034;2024-02-28T09:05:12;95348.84;;;17.35;72.20
7990;BME280;4040;42.848;23.034;2024-02-28T09:11:01;95352.75;;;17.34;68.53
7990;BME280;4040;42.848;23.034;2024-02-28T09:16:53;95365.13;;;15.21;82.30
7990;BME280;4040;42.848;23.034;2024-02-28T09:27:11;95357.97;;;15.11;96.51
7990;BME280;4040;42.848;23.034;2024-02-28T09:33:02;95338.31;;;16.64;84.22
7990;BME280;4040;42.848;23.034;2024-02-28T09:38:51;95332.19;;;18.49;68.28
7990;BME280;4040;42.848;23.034;2024-02-28T09:44:40;95321.75;;;19.58;59.25
7990;BME280;4040;42.848;23.034;2024-02-28T09:50:33;95321.75;;;18.35;63.28
7990;BME280;4040;42.848;23.034;2024-02-28T09:56:22;95328.69;;;16.44;70.73
7990;BME280;4040;42.848;23.034;2024-02-28T10:02:12;95316.88;;;16.50;77.82
7990;BME280;4040;42.848;23.034;2024-02-28T10:08:06;95311.94;;;16.77;75.74
7990;BME280;4040;42.848;23.034;2024-02-28T10:13:56;95304.03;;;17.52;70.16
7990;BME280;4040;42.848;23.034;2024-02-28T10:19:46;95290.53;;;17.86;66.25
7990;BME280;4040;42.848;23.034;2024-02-28T10:29:59;95284.16;;;20.02;56.04
7990;BME280;4040;42.848;23.034;2024-02-28T10:35:50;95271.31;;;20.77;53.43
7990;BME280;4040;42.848;23.034;2024-02-28T10:41:40;95265.81;;;22.65;47.36
7990;BME280;4040;42.848;23.034;2024-02-28T10:47:31;95250.31;;;23.52;43.21
7990;BME280;4040;42.848;23.034;2024-02-28T10:53:22;95246.28;;;23.82;41.61
7990;BME280;4040;42.848;23.034;2024-02-28T10:59:23;95243.81;;;24.13;42.03
7990;BME280;4040;42.848;23.034;2024-02-28T11:05:15;95228.84;;;22.51;43.92
7990;BME280;4040;42.848;23.034;2024-02-28T11:11:05;95222.84;;;22.76;44.13
7990;BME280;4040;42.848;23.034;2024-02-28T11:17:01;95222.50;;;23.36;40.18
7990;BME280;4040;42.848;23.034;2024-02-28T11:22:59;95212.09;;;19.78;46.89
7990;BME280;4040;42.848;23.034;2024-02-28T11:33:10;95212.94;;;17.78;54.79
7990;BME280;4040;42.848;23.034;2024-02-28T11:39:00;95204.81;;;17.12;58.17
7990;BME280;4040;42.848;23.034;2024-02-28T11:44:53;95197.69;;;17.81;56.34
7990;BME280;4040;42.848;23.034;2024-02-28T11:50:43;95189.41;;;17.84;56.62
7990;BME280;4040;42.848;23.034;2024-02-28T11:56:33;95174.50;;;19.21;54.46
7990;BME280;4040;42.848;23.034;2024-02-28T12:02:23;95140.81;;;20.83;46.49
7990;BME280;4040;42.848;23.034;2024-02-28T12:08:14;95165.34;;;19.15;50.43
7990;BME280;4040;42.848;23.034;2024-02-28T12:14:05;95150.78;;;19.48;50.06
7990;BME280;4040;42.848;23.034;2024-02-28T12:19:56;95142.66;;;18.53;52.18
7990;BME280;4040;42.848;23.034;2024-02-28T12:25:47;95130.34;;;18.15;53.23
7990;BME280;4040;42.848;23.034;2024-02-28T12:32:07;95146.03;;;17.77;55.45
7990;BME280;4040;42.848;23.034;2024-02-28T12:37:56;95143.41;;;17.86;55.77
7990;BME280;4040;42.848;23.034;2024-02-28T12:43:46;95142.56;;;17.64;55.68
7990;BME280;4040;42.848;23.034;2024-02-28T12:49:36;95138.41;;;18.74;53.04
7990;BME280;4040;42.848;23.034;2024-02-28T12:55:25;95118.53;;;18.73;52.45
7990;BME280;4040;42.848;23.034;2024-02-28T13:01:14;95112.19;;;18.33;52.94
7990;BME280;4040;42.848;23.034;2024-02-28T13:07:04;95131.00;;;18.53;52.76
7990;BME280;4040;42.848;23.034;2024-02-28T13:12:53;95128.13;;;18.35;51.89
7990;BME280;4040;42.848;23.034;2024-02-28T13:18:43;95112.31;;;17.96;53.59
7990;BME280;4040;42.848;23.034;2024-02-28T13:24:33;95133.06;;;18.15;53.43
7990;BME280;4040;42.848;23.034;2024-02-28T13:30:23;95125.69;;;18.03;54.57
7990;BME280;4040;42.848;23.034;2024-02-28T13:36:12;95122.47;;;17.83;55.40
7990;BME280;4040;42.848;23.034;2024-02-28T13:42:02;95119.47;;;17.69;54.60
7990;BME280;4040;42.848;23.034;2024-02-28T13:47:53;95118.72;;;17.68;54.53
7990;BME280;4040;42.848;23.034;2024-02-28T13:53:42;95123.81;;;17.79;52.87
7990;BME280;4040;42.848;23.034;2024-02-28T13:59:33;95122.97;;;17.69;53.02
7990;BME280;4040;42.848;23.034;2024-02-28T14:05:22;95120.66;;;17.55;53.30
7990;BME280;4040;42.848;23.034;2024-02-28T14:11:12;95123.66;;;17.48;53.15
7990;BME280;4040;42.848;23.034;2024-02-28T14:17:04;95122.34;;;17.40;53.69
7990;BME280;4040;42.848;23.034;2024-02-28T14:22:53;95125.13;;;17.24;53.55
7990;BME280;4040;42.848;23.034;2024-02-28T14:28:43;95129.94;;;17.20;53.94
7990;BME280;4040;42.848;23.034;2024-02-28T14:38:55;95136.13;;;17.21;53.82
7990;BME280;4040;42.848;23.034;2024-02-28T14:44:45;95145.81;;;17.09;54.17
7990;BME280;4040;42.848;23.034;2024-02-28T14:50:34;95135.13;;;17.02;54.04
7990;BME280;4040;42.848;23.034;2024-02-28T14:56:24;95139.94;;;16.98;54.11
7990;BME280;4040;42.848;23.034;2024-02-28T15:02:15;95132.63;;;16.83;54.82
7990;BME280;4040;42.848;23.034;2024-02-28T15:08:04;95137.88;;;16.90;55.77
7990;BME280;4040;42.848;23.034;2024-02-28T15:13:55;95131.84;;;16.82;56.79
7990;BME280;4040;42.848;23.034;2024-02-28T15:19:43;95143.56;;;16.54;58.24
7990;BME280;4040;42.848;23.034;2024-02-28T15:22:11;95141.38;;;16.62;58.19
7990;BME280;4040;42.848;23.034;2024-02-28T15:28:00;95140.28;;;16.31;59.26
7990;BME280;4040;42.848;23.034;2024-02-28T15:33:50;95152.34;;;16.30;60.01
7990;BME280;4040;42.848;23.034;2024-02-28T15:39:39;95154.34;;;16.13;61.11
7990;BME280;4040;42.848;23.034;2024-02-28T15:45:28;95154.50;;;16.06;61.92
7990;BME280;4040;42.848;23.034;2024-02-28T15:51:19;95160.81;;;15.87;63.50
7990;BME280;4040;42.848;23.034;2024-02-28T15:57:08;95171.03;;;15.83;63.93
7990;BME280;4040;42.848;23.034;2024-02-28T16:02:57;95168.91;;;15.75;64.54
7990;BME280;4040;42.848;23.034;2024-02-28T16:08:47;95176.78;;;15.69;65.03
7990;BME280;4040;42.848;23.034;2024-02-28T16:14:36;95179.34;;;15.60;66.46
7990;BME280;4040;42.848;23.034;2024-02-28T16:20:25;95174.34;;;15.59;66.62
7990;BME280;4040;42.848;23.034;2024-02-28T16:26:15;95184.81;;;15.41;69.60
7990;BME280;4040;42.848;23.034;2024-02-28T16:32:04;95180.88;;;15.26;70.53
7990;BME280;4040;42.848;23.034;2024-02-28T16:42:18;95189.44;;;15.24;72.68
7990;BME280;4040;42.848;23.034;2024-02-28T16:48:07;95188.38;;;15.03;76.49
7990;BME280;4040;42.848;23.034;2024-02-28T16:53:56;95204.78;;;14.96;76.53
7990;BME280;4040;42.848;23.034;2024-02-28T16:59:47;95202.44;;;14.98;76.88
7990;BME280;4040;42.848;23.034;2024-02-28T17:05:36;95207.03;;;15.01;77.77
7990;BME280;4040;42.848;23.034;2024-02-28T17:11:26;95207.16;;;14.94;78.29
7990;BME280;4040;42.848;23.034;2024-02-28T17:17:17;95210.22;;;14.96;78.89
7990;BME280;4040;42.848;23.034;2024-02-28T17:23:07;95213.44;;;14.91;78.35
7990;BME280;4040;42.848;23.034;2024-02-28T17:28:55;95218.84;;;14.91;78.10
7990;BME280;4040;42.848;23.034;2024-02-28T17:34:46;95221.97;;;14.89;78.50
7990;BME280;4040;42.848;23.034;2024-02-28T17:44:59;95239.28;;;14.76;81.33
7990;BME280;4040;42.848;23.034;2024-02-28T17:50:50;95252.09;;;14.56;85.45
7990;BME280;4040;42.848;23.034;2024-02-28T17:56:39;95253.38;;;14.48;87.70
7990;BME280;4040;42.848;23.034;2024-02-28T18:02:28;95255.03;;;14.42;89.55
7990;BME280;4040;42.848;23.034;2024-02-28T18:08:19;95255.97;;;14.32;90.54
7990;BME280;4040;42.848;23.034;2024-02-28T18:14:09;95250.56;;;14.09;93.25
7990;BME280;4040;42.848;23.034;2024-02-28T18:19:58;95255.28;;;14.05;95.00
7990;BME280;4040;42.848;23.034;2024-02-28T18:25:49;95255.78;;;13.96;93.94
7990;BME280;4040;42.848;23.034;2024-02-28T18:31:37;95256.72;;;13.86;96.28
7990;BME280;4040;42.848;23.034;2024-02-28T18:37:27;95261.22;;;13.70;97.34
7990;BME280;4040;42.848;23.034;2024-02-28T18:47:41;95270.69;;;13.58;99.14
7990;BME280;4040;42.848;23.034;2024-02-28T18:53:31;95269.22;;;13.54;100.00
7990;BME280;4040;42.848;23.034;2024-02-28T18:59:20;95269.31;;;13.47;100.00
7990;BME280;4040;42.848;23.034;2024-02-28T19:05:12;95267.13;;;13.38;100.00
7990;BME280;4040;42.848;23.034;2024-02-28T19:11:01;95282.91;;;13.40;100.00
7990;BME280;4040;42.848;23.034;2024-02-28T19:16:51;95270.75;;;13.25;100.00
7990;BME280;4040;42.848;23.034;2024-02-28T19:22:41;95284.25;;;13.28;100.00
7990;BME280;4040;42.848;23.034;2024-02-28T19:28:30;95293.59;;;13.24;100.00
7990;BME280;4040;42.848;23.034;2024-02-28T19:34:19;95307.53;;;13.19;100.00
7990;BME280;4040;42.848;23.034;2024-02-28T19:40:10;95309.22;;;13.09;100.00
7990;BME280;4040;42.848;23.034;2024-02-28T19:50:21;95303.53;;;13.00;100.00
7990;BME280;4040;42.848;23.034;2024-02-28T19:56:12;95318.69;;;12.91;100.00
7990;BME280;4040;42.848;23.034;2024-02-28T20:02:01;95307.94;;;12.84;100.00
7990;BME280;4040;42.848;23.034;2024-02-28T20:07:50;95321.91;;;12.79;100.00
7990;BME280;4040;42.848;23.034;2024-02-28T20:13:41;95315.03;;;12.71;100.00
7990;BME280;4040;42.848;23.034;2024-02-28T20:19:35;95322.78;;;12.69;100.00
7990;BME280;4040;42.848;23.034;2024-02-28T20:25:24;95324.34;;;12.66;100.00
7990;BME280;4040;42.848;23.034;2024-02-28T20:31:15;95318.16;;;12.66;100.00
7990;BME280;4040;42.848;23.034;2024-02-28T20:37:05;95305.16;;;12.54;100.00
7990;BME280;4040;42.848;23.034;2024-02-28T20:42:54;95319.22;;;12.35;100.00
7990;BME280;4040;42.848;23.034;2024-02-28T20:53:07;95316.25;;;12.26;100.00
7990;BME280;4040;42.848;23.034;2024-02-28T20:58:57;95318.56;;;12.24;100.00
7990;BME280;4040;42.848;23.034;2024-02-28T21:04:46;95310.09;;;12.22;100.00
7990;BME280;4040;42.848;23.034;2024-02-28T21:10:37;95300.94;;;12.13;100.00
7990;BME280;4040;42.848;23.034;2024-02-28T21:16:26;95305.66;;;11.98;100.00
7990;BME280;4040;42.848;23.034;2024-02-28T21:22:15;95291.22;;;11.71;100.00
7990;BME280;4040;42.848;23.034;2024-02-28T21:28:06;95309.69;;;11.76;100.00
7990;BME280;4040;42.848;23.034;2024-02-28T21:33:55;95310.53;;;11.66;100.00
7990;BME280;4040;42.848;23.034;2024-02-28T21:39:54;95310.53;;;11.66;100.00
7990;BME280;4040;42.848;23.034;2024-02-28T21:45:46;95324.38;;;11.72;100.00
7990;BME280;4040;42.848;23.034;2024-02-28T21:55:56;95322.06;;;11.67;100.00
7990;BME280;4040;42.848;23.034;2024-02-28T22:01:47;95332.16;;;11.59;100.00
7990;BME280;4040;42.848;23.034;2024-02-28T22:07:35;95329.88;;;11.47;100.00
7990;BME280;4040;42.848;23.034;2024-02-28T22:13:24;95332.91;;;11.56;100.00
7990;BME280;4040;42.848;23.034;2024-02-28T22:19:18;95333.75;;;11.43;100.00
7990;BME280;4040;42.848;23.034;2024-02-28T22:25:07;95320.75;;;11.20;100.00
7990;BME280;4040;42.848;23.034;2024-02-28T22:30:57;95335.09;;;10.96;100.00
7990;BME280;4040;42.848;23.034;2024-02-28T22:36:47;95336.34;;;10.67;100.00
7990;BME280;4040;42.848;23.034;2024-02-28T22:42:37;95334.47;;;10.54;100.00
7990;BME280;4040;42.848;23.034;2024-02-28T22:48:26;95329.50;;;10.31;100.00
7990;BME280;4040;42.848;23.034;2024-02-28T22:58:39;95327.16;;;9.88;100.00
7990;BME280;4040;42.848;23.034;2024-02-28T23:08:29;95325.56;;;9.49;100.00
7990;BME280;4040;42.848;23.034;2024-02-28T23:14:18;95337.84;;;9.43;100.00
7990;BME280;4040;42.848;23.034;2024-02-28T23:20:08;95345.53;;;9.41;100.00
7990;BME280;4040;42.848;23.034;2024-02-28T23:26:00;95343.53;;;9.17;100.00
7990;BME280;4040;42.848;23.034;2024-02-28T23:31:48;95352.75;;;9.16;100.00
7990;BME280;4040;42.848;23.034;2024-02-28T23:37:39;95348.88;;;9.10;100.00
7990;BME280;4040;42.848;23.034;2024-02-28T23:43:29;95342.91;;;8.66;100.00
7990;BME280;4040;42.848;23.034;2024-02-28T23:49:18;95341.34;;;8.58;100.00
7990;BME280;4040;42.848;23.034;2024-02-28T23:55:07;95344.72;;;8.48;100.00
